sensor_id;sensor_type;location;lat;lon;timestamp;temperature;humidity
20744;DHT22;56303;52.160;-0.428;2023-04-03T00:01:05;4.50;99.90
20744;DHT22;56303;52.160;-0.428;2023-04-03T00:03:33;4.50;99.90
20744;DHT22;56303;52.160;-0.428;2023-04-03T00:06:00;4.50;99.90
20744;DHT22;56303;52.160;-0.428;2023-04-03T00:08:27;4.40;99.90
20744;DHT22;56303;52.160;-0.428;2023-04-03T00:10:57;4.30;99.90
20744;DHT22;56303;52.160;-0.428;2023-04-03T00:13:24;4.20;99.90
20744;DHT22;56303;52.160;-0.428;2023-04-03T00:15:51;4.20;99.90
20744;DHT22;56303;52.160;-0.428;2023-04-03T00:18:18;4.80;99.90
20744;DHT22;56303;52.160;-0.428;2023-04-03T00:20:45;4.10;99.90
20744;DHT22;56303;52.160;-0.428;2023-04-03T00:23:12;4.20;99.90
20744;DHT22;56303;52.160;-0.428;2023-04-03T00:25:39;4.20;99.90
20744;DHT22;56303;52.160;-0.428;2023-04-03T00:28:06;4.40;99.90
20744;DHT22;56303;52.160;-0.428;2023-04-03T00:30:33;4.30;99.90
20744;DHT22;56303;52.160;-0.428;2023-04-03T00:33:01;4.30;99.90
20744;DHT22;56303;52.160;-0.428;2023-04-03T00:35:29;4.30;99.90
20744;DHT22;56303;52.160;-0.428;2023-04-03T00:37:56;4.60;99.90
20744;DHT22;56303;52.160;-0.428;2023-04-03T00:40:25;4.40;99.90
20744;DHT22;56303;52.160;-0.428;2023-04-03T00:42:56;4.40;99.90
20744;DHT22;56303;52.160;-0.428;2023-04-03T00:45:31;4.30;99.90
20744;DHT22;56303;52.160;-0.428;2023-04-03T00:48:00;4.30;99.90
20744;DHT22;56303;52.160;-0.428;2023-04-03T00:50:29;4.60;99.90
20744;DHT22;56303;52.160;-0.428;2023-04-03T00:52:57;4.20;99.90
20744;DHT22;56303;52.160;-0.428;2023-04-03T00:55:25;4.30;99.90
20744;DHT22;56303;52.160;-0.428;2023-04-03T00:57:53;4.30;99.90
20744;DHT22;56303;52.160;-0.428;2023-04-03T01:00:22;4.20;99.90
20744;DHT22;56303;52.160;-0.428;2023-04-03T01:02:51;4.20;99.90
20744;DHT22;56303;52.160;-0.428;2023-04-03T01:05:21;4.10;99.90
20744;DHT22;56303;52.160;-0.428;2023-04-03T01:07:49;4.10;99.90
20744;DHT22;56303;52.160;-0.428;2023-04-03T01:10:18;3.80;99.90
20744;DHT22;56303;52.160;-0.428;2023-04-03T01:12:49;3.80;99.90
20744;DHT22;56303;52.160;-0.428;2023-04-03T01:15:23;3.90;99.90
20744;DHT22;56303;52.160;-0.428;2023-04-03T01:17:55;3.90;99.90
20744;DHT22;56303;52.160;-0.428;2023-04-03T01:23:29;3.90;99.90
20744;DHT22;56303;52.160;-0.428;2023-04-03T01:25:58;3.80;99.90
20744;DHT22;56303;52.160;-0.428;2023-04-03T01:28:31;3.90;99.90
20744;DHT22;56303;52.160;-0.428;2023-04-03T01:31:28;3.80;99.90
20744;DHT22;56303;52.160;-0.428;2023-04-03T01:33:57;3.90;99.90
20744;DHT22;56303;52.160;-0.428;2023-04-03T01:36:27;3.80;99.90
20744;DHT22;56303;52.160;-0.428;2023-04-03T01:38:55;3.70;99.90
20744;DHT22;56303;52.160;-0.428;2023-04-03T01:41:23;3.70;99.90
20744;DHT22;56303;52.160;-0.428;2023-04-03T01:43:52;3.60;99.90
20744;DHT22;56303;52.160;-0.428;2023-04-03T01:46:19;3.60;99.90
20744;DHT22;56303;52.160;-0.428;2023-04-03T01:48:47;3.60;99.90
20744;DHT22;56303;52.160;-0.428;2023-04-03T01:51:13;3.50;99.90
20744;DHT22;56303;52.160;-0.428;2023-04-03T01:53:42;3.50;99.90
20744;DHT22;56303;52.160;-0.428;2023-04-03T01:56:09;3.40;99.90
20744;DHT22;56303;52.160;-0.428;2023-04-03T01:58:37;3.30;99.90
20744;DHT22;56303;52.160;-0.428;2023-04-03T02:01:05;3.20;99.90
20744;DHT22;56303;52.160;-0.428;2023-04-03T02:03:32;3.20;99.90
20744;DHT22;56303;52.160;-0.428;2023-04-03T02:06:00;3.20;99.90
20744;DHT22;56303;52.160;-0.428;2023-04-03T02:08:27;2.30;99.90
20744;DHT22;56303;52.160;-0.428;2023-04-03T02:10:54;3.20;99.90
20744;DHT22;56303;52.160;-0.428;2023-04-03T02:13:21;3.10;99.90
20744;DHT22;56303;52.160;-0.428;2023-04-03T02:15:48;3.60;99.90
20744;DHT22;56303;52.160;-0.428;2023-04-03T02:18:15;3.50;99.90
20744;DHT22;56303;52.160;-0.428;2023-04-03T02:20:42;3.10;99.90
20744;DHT22;56303;52.160;-0.428;2023-04-03T02:23:09;3.00;99.90
20744;DHT22;56303;52.160;-0.428;2023-04-03T02:25:36;3.10;99.90
20744;DHT22;56303;52.160;-0.428;2023-04-03T02:28:05;3.10;99.90
20744;DHT22;56303;52.160;-0.428;2023-04-03T02:30:32;3.10;99.90
20744;DHT22;56303;52.160;-0.428;2023-04-03T02:32:58;3.10;99.90
20744;DHT22;56303;52.160;-0.428;2023-04-03T02:35:25;3.10;99.90
20744;DHT22;56303;52.160;-0.428;2023-04-03T02:37:52;3.10;99.90
20744;DHT22;56303;52.160;-0.428;2023-04-03T02:40:19;3.50;99.90
20744;DHT22;56303;52.160;-0.428;2023-04-03T02:42:46;3.00;99.90
20744;DHT22;56303;52.160;-0.428;2023-04-03T02:45:13;3.10;99.90
20744;DHT22;56303;52.160;-0.428;2023-04-03T02:47:40;2.90;99.90
20744;DHT22;56303;52.160;-0.428;2023-04-03T02:50:08;3.10;99.90
20744;DHT22;56303;52.160;-0.428;2023-04-03T02:52:35;3.20;99.90
20744;DHT22;56303;52.160;-0.428;2023-04-03T02:55:02;3.30;99.90
20744;DHT22;56303;52.160;-0.428;2023-04-03T02:57:29;3.20;99.90
20744;DHT22;56303;52.160;-0.428;2023-04-03T02:59:56;2.00;99.90
20744;DHT22;56303;52.160;-0.428;2023-04-03T03:02:23;2.90;99.90
20744;DHT22;56303;52.160;-0.428;2023-04-03T03:04:50;3.70;99.90
20744;DHT22;56303;52.160;-0.428;2023-04-03T03:07:17;2.90;99.90
20744;DHT22;56303;52.160;-0.428;2023-04-03T03:09:43;2.70;99.90
20744;DHT22;56303;52.160;-0.428;2023-04-03T03:12:10;2.90;99.90
20744;DHT22;56303;52.160;-0.428;2023-04-03T03:14:44;2.80;99.90
20744;DHT22;56303;52.160;-0.428;2023-04-03T03:17:11;2.90;99.90
20744;DHT22;56303;52.160;-0.428;2023-04-03T03:19:41;3.00;99.90
20744;DHT22;56303;52.160;-0.428;2023-04-03T03:22:08;3.10;99.90
20744;DHT22;56303;52.160;-0.428;2023-04-03T03:24:35;3.10;99.90
20744;DHT22;56303;52.160;-0.428;2023-04-03T03:27:03;3.20;99.90
20744;DHT22;56303;52.160;-0.428;2023-04-03T03:29:30;3.00;99.90
20744;DHT22;56303;52.160;-0.428;2023-04-03T03:31:57;2.90;99.90
20744;DHT22;56303;52.160;-0.428;2023-04-03T03:34:24;3.10;99.90
20744;DHT22;56303;52.160;-0.428;2023-04-03T03:36:50;3.90;99.90
20744;DHT22;56303;52.160;-0.428;2023-04-03T03:39:17;3.30;99.90
20744;DHT22;56303;52.160;-0.428;2023-04-03T03:41:44;3.40;99.90
20744;DHT22;56303;52.160;-0.428;2023-04-03T03:44:11;4.10;99.90
20744;DHT22;56303;52.160;-0.428;2023-04-03T03:46:39;3.40;99.90
20744;DHT22;56303;52.160;-0.428;2023-04-03T03:49:06;3.40;99.90
20744;DHT22;56303;52.160;-0.428;2023-04-03T03:51:34;3.40;99.90
20744;DHT22;56303;52.160;-0.428;2023-04-03T03:54:00;3.20;99.90
20744;DHT22;56303;52.160;-0.428;2023-04-03T03:56:27;3.20;99.90
20744;DHT22;56303;52.160;-0.428;2023-04-03T03:58:54;3.60;99.90
20744;DHT22;56303;52.160;-0.428;2023-04-03T04:01:23;3.60;99.90
20744;DHT22;56303;52.160;-0.428;2023-04-03T04:03:51;3.80;99.90
20744;DHT22;56303;52.160;-0.428;2023-04-03T04:06:18;3.70;99.90
20744;DHT22;56303;52.160;-0.428;2023-04-03T04:08:45;3.90;99.90
20744;DHT22;56303;52.160;-0.428;2023-04-03T04:11:12;3.70;99.90
20744;DHT22;56303;52.160;-0.428;2023-04-03T04:13:39;3.80;99.90
20744;DHT22;56303;52.160;-0.428;2023-04-03T04:16:06;3.70;99.90
20744;DHT22;56303;52.160;-0.428;2023-04-03T04:18:33;3.60;99.90
20744;DHT22;56303;52.160;-0.428;2023-04-03T04:21:00;3.80;99.90
20744;DHT22;56303;52.160;-0.428;2023-04-03T04:23:27;3.50;99.90
20744;DHT22;56303;52.160;-0.428;2023-04-03T04:25:53;3.40;99.90
20744;DHT22;56303;52.160;-0.428;2023-04-03T04:28:21;3.30;99.90
20744;DHT22;56303;52.160;-0.428;2023-04-03T04:30:48;3.40;99.90
20744;DHT22;56303;52.160;-0.428;2023-04-03T04:33:15;3.40;99.90
20744;DHT22;56303;52.160;-0.428;2023-04-03T04:35:43;3.50;99.90
20744;DHT22;56303;52.160;-0.428;2023-04-03T04:38:10;3.40;99.90
20744;DHT22;56303;52.160;-0.428;2023-04-03T04:40:37;3.40;99.90
20744;DHT22;56303;52.160;-0.428;2023-04-03T04:43:04;3.60;99.90
20744;DHT22;56303;52.160;-0.428;2023-04-03T04:45:31;3.80;99.90
20744;DHT22;56303;52.160;-0.428;2023-04-03T04:47:59;4.00;99.90
20744;DHT22;56303;52.160;-0.428;2023-04-03T04:50:26;3.80;99.90
20744;DHT22;56303;52.160;-0.428;2023-04-03T04:52:53;3.60;99.90
20744;DHT22;56303;52.160;-0.428;2023-04-03T04:55:19;3.70;99.90
20744;DHT22;56303;52.160;-0.428;2023-04-03T04:57:47;3.70;99.90
20744;DHT22;56303;52.160;-0.428;2023-04-03T05:00:14;3.70;99.90
20744;DHT22;56303;52.160;-0.428;2023-04-03T05:02:42;3.80;99.90
20744;DHT22;56303;52.160;-0.428;2023-04-03T05:05:10;3.90;99.90
20744;DHT22;56303;52.160;-0.428;2023-04-03T05:07:37;3.70;99.90
20744;DHT22;56303;52.160;-0.428;2023-04-03T05:10:05;3.60;99.90
20744;DHT22;56303;52.160;-0.428;2023-04-03T05:12:35;3.60;99.90
20744;DHT22;56303;52.160;-0.428;2023-04-03T05:15:02;3.70;99.90
20744;DHT22;56303;52.160;-0.428;2023-04-03T05:17:29;3.70;99.90
20744;DHT22;56303;52.160;-0.428;2023-04-03T05:19:56;4.10;99.90
20744;DHT22;56303;52.160;-0.428;2023-04-03T05:22:23;3.60;99.90
20744;DHT22;56303;52.160;-0.428;2023-04-03T05:24:50;3.50;99.90
20744;DHT22;56303;52.160;-0.428;2023-04-03T05:27:17;3.40;99.90
20744;DHT22;56303;52.160;-0.428;2023-04-03T05:29:43;3.50;99.90
20744;DHT22;56303;52.160;-0.428;2023-04-03T05:32:11;3.90;99.90
20744;DHT22;56303;52.160;-0.428;2023-04-03T05:34:38;4.00;99.90
20744;DHT22;56303;52.160;-0.428;2023-04-03T05:37:05;4.10;99.90
20744;DHT22;56303;52.160;-0.428;2023-04-03T05:39:32;3.90;99.90
20744;DHT22;56303;52.160;-0.428;2023-04-03T05:41:59;4.00;99.90
20744;DHT22;56303;52.160;-0.428;2023-04-03T05:44:26;4.20;99.90
20744;DHT22;56303;52.160;-0.428;2023-04-03T05:46:53;4.30;99.90
20744;DHT22;56303;52.160;-0.428;2023-04-03T05:49:20;3.10;99.90
20744;DHT22;56303;52.160;-0.428;2023-04-03T05:51:50;4.20;99.90
20744;DHT22;56303;52.160;-0.428;2023-04-03T05:54:21;4.20;99.90
20744;DHT22;56303;52.160;-0.428;2023-04-03T05:56:51;4.20;99.90
20744;DHT22;56303;52.160;-0.428;2023-04-03T05:59:20;4.20;99.90
20744;DHT22;56303;52.160;-0.428;2023-04-03T06:01:48;4.40;99.90
20744;DHT22;56303;52.160;-0.428;2023-04-03T06:04:15;4.20;99.90
20744;DHT22;56303;52.160;-0.428;2023-04-03T06:09:15;4.80;99.90
20744;DHT22;56303;52.160;-0.428;2023-04-03T06:11:43;4.60;99.90
20744;DHT22;56303;52.160;-0.428;2023-04-03T06:14:11;5.70;99.90
20744;DHT22;56303;52.160;-0.428;2023-04-03T06:16:39;5.10;99.90
20744;DHT22;56303;52.160;-0.428;2023-04-03T06:19:07;5.10;99.90
20744;DHT22;56303;52.160;-0.428;2023-04-03T06:21:35;5.00;99.90
20744;DHT22;56303;52.160;-0.428;2023-04-03T06:24:05;5.20;99.90
20744;DHT22;56303;52.160;-0.428;2023-04-03T06:26:33;5.10;99.90
20744;DHT22;56303;52.160;-0.428;2023-04-03T06:29:01;5.20;99.90
20744;DHT22;56303;52.160;-0.428;2023-04-03T06:31:29;5.20;99.90
20744;DHT22;56303;52.160;-0.428;2023-04-03T06:33:56;5.30;99.90
20744;DHT22;56303;52.160;-0.428;2023-04-03T06:36:23;5.30;99.90
20744;DHT22;56303;52.160;-0.428;2023-04-03T06:38:50;5.60;99.90
20744;DHT22;56303;52.160;-0.428;2023-04-03T06:41:18;5.30;99.90
20744;DHT22;56303;52.160;-0.428;2023-04-03T06:43:45;5.50;99.90
20744;DHT22;56303;52.160;-0.428;2023-04-03T06:46:18;5.70;99.90
20744;DHT22;56303;52.160;-0.428;2023-04-03T06:48:45;6.00;99.90
20744;DHT22;56303;52.160;-0.428;2023-04-03T06:51:20;5.60;99.90
20744;DHT22;56303;52.160;-0.428;2023-04-03T06:53:51;5.90;99.90
20744;DHT22;56303;52.160;-0.428;2023-04-03T06:56:18;5.60;99.90
20744;DHT22;56303;52.160;-0.428;2023-04-03T06:58:46;5.40;99.90
20744;DHT22;56303;52.160;-0.428;2023-04-03T07:01:16;5.10;99.90
20744;DHT22;56303;52.160;-0.428;2023-04-03T07:03:46;5.50;99.90
20744;DHT22;56303;52.160;-0.428;2023-04-03T07:06:15;5.70;99.90
20744;DHT22;56303;52.160;-0.428;2023-04-03T07:08:44;5.80;99.90
20744;DHT22;56303;52.160;-0.428;2023-04-03T07:11:12;5.80;99.90
20744;DHT22;56303;52.160;-0.428;2023-04-03T07:13:39;5.50;99.90
20744;DHT22;56303;52.160;-0.428;2023-04-03T07:16:07;5.70;99.90
20744;DHT22;56303;52.160;-0.428;2023-04-03T07:18:35;5.90;99.90
20744;DHT22;56303;52.160;-0.428;2023-04-03T07:21:02;5.80;99.90
20744;DHT22;56303;52.160;-0.428;2023-04-03T07:23:30;5.80;99.90
20744;DHT22;56303;52.160;-0.428;2023-04-03T07:25:57;5.70;99.90
20744;DHT22;56303;52.160;-0.428;2023-04-03T07:28:24;5.80;99.90
20744;DHT22;56303;52.160;-0.428;2023-04-03T07:31:09;5.80;99.90
20744;DHT22;56303;52.160;-0.428;2023-04-03T07:33:40;5.80;99.90
20744;DHT22;56303;52.160;-0.428;2023-04-03T07:36:08;6.10;99.90
20744;DHT22;56303;52.160;-0.428;2023-04-03T07:38:36;6.30;99.90
20744;DHT22;56303;52.160;-0.428;2023-04-03T07:41:03;6.50;99.90
20744;DHT22;56303;52.160;-0.428;2023-04-03T07:43:31;6.20;99.90
20744;DHT22;56303;52.160;-0.428;2023-04-03T07:45:58;5.90;99.90
20744;DHT22;56303;52.160;-0.428;2023-04-03T07:48:26;6.20;99.90
20744;DHT22;56303;52.160;-0.428;2023-04-03T07:50:53;6.40;99.90
20744;DHT22;56303;52.160;-0.428;2023-04-03T07:53:21;6.30;99.90
20744;DHT22;56303;52.160;-0.428;2023-04-03T07:55:49;6.60;99.90
20744;DHT22;56303;52.160;-0.428;2023-04-03T07:58:18;6.80;99.90
20744;DHT22;56303;52.160;-0.428;2023-04-03T08:00:45;6.80;99.90
20744;DHT22;56303;52.160;-0.428;2023-04-03T08:03:12;7.30;99.90
20744;DHT22;56303;52.160;-0.428;2023-04-03T08:05:41;7.30;99.90
20744;DHT22;56303;52.160;-0.428;2023-04-03T08:08:10;7.20;99.90
20744;DHT22;56303;52.160;-0.428;2023-04-03T08:10:37;7.00;99.90
20744;DHT22;56303;52.160;-0.428;2023-04-03T08:13:07;7.00;99.90
20744;DHT22;56303;52.160;-0.428;2023-04-03T08:15:34;7.20;99.90
20744;DHT22;56303;52.160;-0.428;2023-04-03T08:18:02;7.30;99.90
20744;DHT22;56303;52.160;-0.428;2023-04-03T08:20:29;7.70;99.90
20744;DHT22;56303;52.160;-0.428;2023-04-03T08:22:56;7.80;99.90
20744;DHT22;56303;52.160;-0.428;2023-04-03T08:25:23;7.50;99.90
20744;DHT22;56303;52.160;-0.428;2023-04-03T08:27:50;7.30;99.90
20744;DHT22;56303;52.160;-0.428;2023-04-03T08:30:17;7.60;99.90
20744;DHT22;56303;52.160;-0.428;2023-04-03T08:32:44;7.60;99.90
20744;DHT22;56303;52.160;-0.428;2023-04-03T08:35:11;7.60;99.90
20744;DHT22;56303;52.160;-0.428;2023-04-03T08:37:39;7.90;99.90
20744;DHT22;56303;52.160;-0.428;2023-04-03T08:40:10;8.30;99.90
20744;DHT22;56303;52.160;-0.428;2023-04-03T08:43:08;8.00;99.90
20744;DHT22;56303;52.160;-0.428;2023-04-03T08:45:46;7.80;99.90
20744;DHT22;56303;52.160;-0.428;2023-04-03T08:48:23;7.90;99.90
20744;DHT22;56303;52.160;-0.428;2023-04-03T08:50:54;8.00;99.90
20744;DHT22;56303;52.160;-0.428;2023-04-03T08:53:30;8.00;99.90
20744;DHT22;56303;52.160;-0.428;2023-04-03T08:56:04;7.90;99.90
20744;DHT22;56303;52.160;-0.428;2023-04-03T08:58:43;7.90;99.90
20744;DHT22;56303;52.160;-0.428;2023-04-03T09:01:38;8.10;99.90
20744;DHT22;56303;52.160;-0.428;2023-04-03T09:04:14;8.30;99.90
20744;DHT22;56303;52.160;-0.428;2023-04-03T09:06:45;8.40;99.90
20744;DHT22;56303;52.160;-0.428;2023-04-03T09:09:26;8.50;99.90
20744;DHT22;56303;52.160;-0.428;2023-04-03T09:14:36;8.70;99.90
20744;DHT22;56303;52.160;-0.428;2023-04-03T09:20:17;8.70;99.90
20744;DHT22;56303;52.160;-0.428;2023-04-03T09:22:47;8.40;99.90
20744;DHT22;56303;52.160;-0.428;2023-04-03T09:27:48;8.70;99.90
20744;DHT22;56303;52.160;-0.428;2023-04-03T09:30:20;8.70;99.90
20744;DHT22;56303;52.160;-0.428;2023-04-03T09:32:50;8.80;99.90
20744;DHT22;56303;52.160;-0.428;2023-04-03T09:35:32;8.90;99.90
20744;DHT22;56303;52.160;-0.428;2023-04-03T09:40:42;8.90;99.90
20744;DHT22;56303;52.160;-0.428;2023-04-03T09:45:53;8.80;99.90
20744;DHT22;56303;52.160;-0.428;2023-04-03T09:48:24;9.10;99.90
20744;DHT22;56303;52.160;-0.428;2023-04-03T09:50:58;9.40;99.90
20744;DHT22;56303;52.160;-0.428;2023-04-03T09:53:30;9.80;99.90
20744;DHT22;56303;52.160;-0.428;2023-04-03T09:55:57;9.90;99.90
20744;DHT22;56303;52.160;-0.428;2023-04-03T09:58:37;10.10;99.90
20744;DHT22;56303;52.160;-0.428;2023-04-03T10:01:26;10.20;99.90
20744;DHT22;56303;52.160;-0.428;2023-04-03T10:04:13;10.00;99.90
20744;DHT22;56303;52.160;-0.428;2023-04-03T10:06:46;9.90;99.90
20744;DHT22;56303;52.160;-0.428;2023-04-03T10:12:06;9.70;99.90
20744;DHT22;56303;52.160;-0.428;2023-04-03T10:14:41;9.90;99.90
20744;DHT22;56303;52.160;-0.428;2023-04-03T10:19:49;10.10;99.90
20744;DHT22;56303;52.160;-0.428;2023-04-03T10:35:48;10.00;99.90
20744;DHT22;56303;52.160;-0.428;2023-04-03T10:57:28;10.40;99.90
20744;DHT22;56303;52.160;-0.428;2023-04-03T11:00:03;10.60;99.90
20744;DHT22;56303;52.160;-0.428;2023-04-03T11:02:58;11.20;99.90
20744;DHT22;56303;52.160;-0.428;2023-04-03T11:05:40;10.90;99.90
20744;DHT22;56303;52.160;-0.428;2023-04-03T11:10:58;10.50;99.90
20744;DHT22;56303;52.160;-0.428;2023-04-03T11:14:01;10.30;99.90
20744;DHT22;56303;52.160;-0.428;2023-04-03T11:16:33;10.80;99.90
20744;DHT22;56303;52.160;-0.428;2023-04-03T11:19:21;11.30;99.90
20744;DHT22;56303;52.160;-0.428;2023-04-03T11:24:41;10.90;99.90
20744;DHT22;56303;52.160;-0.428;2023-04-03T11:27:17;11.20;99.90
20744;DHT22;56303;52.160;-0.428;2023-04-03T11:29:50;11.70;99.90
20744;DHT22;56303;52.160;-0.428;2023-04-03T11:32:31;11.60;99.90
20744;DHT22;56303;52.160;-0.428;2023-04-03T11:35:05;11.70;99.90
20744;DHT22;56303;52.160;-0.428;2023-04-03T11:37:39;12.20;99.90
20744;DHT22;56303;52.160;-0.428;2023-04-03T11:42:49;11.10;99.90
20744;DHT22;56303;52.160;-0.428;2023-04-03T11:47:57;12.10;99.90
20744;DHT22;56303;52.160;-0.428;2023-04-03T11:50:52;12.70;99.90
20744;DHT22;56303;52.160;-0.428;2023-04-03T11:53:31;13.20;99.90
20744;DHT22;56303;52.160;-0.428;2023-04-03T12:01:53;13.30;99.90
20744;DHT22;56303;52.160;-0.428;2023-04-03T12:04:23;12.70;99.90
20744;DHT22;56303;52.160;-0.428;2023-04-03T12:06:58;13.70;99.90
20744;DHT22;56303;52.160;-0.428;2023-04-03T12:09:56;14.20;99.90
20744;DHT22;56303;52.160;-0.428;2023-04-03T12:15:21;13.10;99.90
20744;DHT22;56303;52.160;-0.428;2023-04-03T12:17:49;13.10;99.90
20744;DHT22;56303;52.160;-0.428;2023-04-03T12:23:33;13.30;99.90
20744;DHT22;56303;52.160;-0.428;2023-04-03T12:26:28;13.90;99.90
20744;DHT22;56303;52.160;-0.428;2023-04-03T12:40:44;14.70;99.90
20744;DHT22;56303;52.160;-0.428;2023-04-03T12:43:43;13.40;99.90
20744;DHT22;56303;52.160;-0.428;2023-04-03T12:46:17;12.90;99.90
20744;DHT22;56303;52.160;-0.428;2023-04-03T12:48:50;12.80;99.90
20744;DHT22;56303;52.160;-0.428;2023-04-03T12:53:52;12.80;99.90
20744;DHT22;56303;52.160;-0.428;2023-04-03T12:56:24;13.10;99.90
20744;DHT22;56303;52.160;-0.428;2023-04-03T12:58:53;12.50;99.90
20744;DHT22;56303;52.160;-0.428;2023-04-03T13:01:25;13.20;99.90
20744;DHT22;56303;52.160;-0.428;2023-04-03T13:03:56;13.40;99.90
20744;DHT22;56303;52.160;-0.428;2023-04-03T13:06:38;13.80;99.90
20744;DHT22;56303;52.160;-0.428;2023-04-03T13:09:17;15.50;99.90
20744;DHT22;56303;52.160;-0.428;2023-04-03T13:11:45;15.50;99.90
20744;DHT22;56303;52.160;-0.428;2023-04-03T13:14:23;15.60;99.90
20744;DHT22;56303;52.160;-0.428;2023-04-03T13:17:00;15.20;99.90
20744;DHT22;56303;52.160;-0.428;2023-04-03T13:19:29;15.50;99.90
20744;DHT22;56303;52.160;-0.428;2023-04-03T13:22:02;15.00;99.90
20744;DHT22;56303;52.160;-0.428;2023-04-03T13:24:33;15.30;99.90
20744;DHT22;56303;52.160;-0.428;2023-04-03T13:27:02;15.90;99.90
20744;DHT22;56303;52.160;-0.428;2023-04-03T13:29:35;15.50;99.90
20744;DHT22;56303;52.160;-0.428;2023-04-03T13:32:04;14.40;99.90
20744;DHT22;56303;52.160;-0.428;2023-04-03T13:34:41;14.10;99.90
20744;DHT22;56303;52.160;-0.428;2023-04-03T13:37:32;14.30;99.90
20744;DHT22;56303;52.160;-0.428;2023-04-03T13:40:10;14.10;99.90
20744;DHT22;56303;52.160;-0.428;2023-04-03T13:42:39;14.00;99.90
20744;DHT22;56303;52.160;-0.428;2023-04-03T13:47:42;14.50;99.90
20744;DHT22;56303;52.160;-0.428;2023-04-03T13:50:19;14.00;99.90
20744;DHT22;56303;52.160;-0.428;2023-04-03T13:52:55;13.30;99.90
20744;DHT22;56303;52.160;-0.428;2023-04-03T13:55:34;13.40;99.90
20744;DHT22;56303;52.160;-0.428;2023-04-03T14:03:45;14.60;99.90
20744;DHT22;56303;52.160;-0.428;2023-04-03T14:06:16;15.20;99.90
20744;DHT22;56303;52.160;-0.428;2023-04-03T14:08:46;14.90;99.90
20744;DHT22;56303;52.160;-0.428;2023-04-03T14:11:20;13.90;99.90
20744;DHT22;56303;52.160;-0.428;2023-04-03T14:13:49;13.70;99.90
20744;DHT22;56303;52.160;-0.428;2023-04-03T14:16:22;14.10;99.90
20744;DHT22;56303;52.160;-0.428;2023-04-03T14:18:50;14.00;99.90
20744;DHT22;56303;52.160;-0.428;2023-04-03T14:21:19;14.20;99.90
20744;DHT22;56303;52.160;-0.428;2023-04-03T14:23:46;14.90;99.90
20744;DHT22;56303;52.160;-0.428;2023-04-03T14:26:19;15.80;99.90
20744;DHT22;56303;52.160;-0.428;2023-04-03T14:28:50;16.30;99.90
20744;DHT22;56303;52.160;-0.428;2023-04-03T14:31:17;15.50;99.90
20744;DHT22;56303;52.160;-0.428;2023-04-03T14:33:45;15.30;99.90
20744;DHT22;56303;52.160;-0.428;2023-04-03T14:36:19;15.20;99.90
20744;DHT22;56303;52.160;-0.428;2023-04-03T14:38:49;16.90;99.90
20744;DHT22;56303;52.160;-0.428;2023-04-03T14:41:19;17.50;99.90
20744;DHT22;56303;52.160;-0.428;2023-04-03T14:43:47;16.20;99.90
20744;DHT22;56303;52.160;-0.428;2023-04-03T14:46:18;15.80;99.90
20744;DHT22;56303;52.160;-0.428;2023-04-03T14:48:46;15.20;99.90
20744;DHT22;56303;52.160;-0.428;2023-04-03T14:51:15;15.80;99.90
20744;DHT22;56303;52.160;-0.428;2023-04-03T14:53:43;15.40;99.90
20744;DHT22;56303;52.160;-0.428;2023-04-03T14:58:50;14.90;99.90
20744;DHT22;56303;52.160;-0.428;2023-04-03T15:01:20;15.30;99.90
20744;DHT22;56303;52.160;-0.428;2023-04-03T15:03:48;15.30;99.90
20744;DHT22;56303;52.160;-0.428;2023-04-03T15:06:15;15.80;99.90
20744;DHT22;56303;52.160;-0.428;2023-04-03T15:08:43;15.80;99.90
20744;DHT22;56303;52.160;-0.428;2023-04-03T15:11:11;15.70;99.90
20744;DHT22;56303;52.160;-0.428;2023-04-03T15:13:38;15.80;99.90
20744;DHT22;56303;52.160;-0.428;2023-04-03T15:16:14;15.30;99.90
20744;DHT22;56303;52.160;-0.428;2023-04-03T15:18:42;15.30;99.90
20744;DHT22;56303;52.160;-0.428;2023-04-03T15:21:10;15.50;99.90
20744;DHT22;56303;52.160;-0.428;2023-04-03T15:23:37;14.20;99.90
20744;DHT22;56303;52.160;-0.428;2023-04-03T15:26:05;14.50;99.90
20744;DHT22;56303;52.160;-0.428;2023-04-03T15:28:34;14.50;99.90
20744;DHT22;56303;52.160;-0.428;2023-04-03T15:31:02;14.90;99.90
20744;DHT22;56303;52.160;-0.428;2023-04-03T15:33:33;15.10;99.90
20744;DHT22;56303;52.160;-0.428;2023-04-03T15:36:01;15.00;99.90
20744;DHT22;56303;52.160;-0.428;2023-04-03T15:38:33;15.40;99.90
20744;DHT22;56303;52.160;-0.428;2023-04-03T15:41:01;16.30;99.90
20744;DHT22;56303;52.160;-0.428;2023-04-03T15:43:28;17.00;99.90
20744;DHT22;56303;52.160;-0.428;2023-04-03T15:45:57;16.40;99.90
20744;DHT22;56303;52.160;-0.428;2023-04-03T15:48:25;15.70;99.90
20744;DHT22;56303;52.160;-0.428;2023-04-03T15:50:53;14.80;99.90
20744;DHT22;56303;52.160;-0.428;2023-04-03T15:53:23;14.60;99.90
20744;DHT22;56303;52.160;-0.428;2023-04-03T15:55:50;14.40;99.90
20744;DHT22;56303;52.160;-0.428;2023-04-03T15:58:17;14.50;99.90
20744;DHT22;56303;52.160;-0.428;2023-04-03T16:00:44;14.80;99.90
20744;DHT22;56303;52.160;-0.428;2023-04-03T16:03:12;15.70;99.90
20744;DHT22;56303;52.160;-0.428;2023-04-03T16:05:42;15.60;99.90
20744;DHT22;56303;52.160;-0.428;2023-04-03T16:08:09;15.60;99.90
20744;DHT22;56303;52.160;-0.428;2023-04-03T16:10:37;14.60;99.90
20744;DHT22;56303;52.160;-0.428;2023-04-03T16:13:05;14.90;99.90
20744;DHT22;56303;52.160;-0.428;2023-04-03T16:15:33;15.20;99.90
20744;DHT22;56303;52.160;-0.428;2023-04-03T16:18:01;15.00;99.90
20744;DHT22;56303;52.160;-0.428;2023-04-03T16:20:29;14.90;99.90
20744;DHT22;56303;52.160;-0.428;2023-04-03T16:22:58;14.60;99.90
20744;DHT22;56303;52.160;-0.428;2023-04-03T16:25:25;14.60;99.90
20744;DHT22;56303;52.160;-0.428;2023-04-03T16:27:53;14.70;99.90
20744;DHT22;56303;52.160;-0.428;2023-04-03T16:30:20;15.10;99.90
20744;DHT22;56303;52.160;-0.428;2023-04-03T16:32:46;15.30;99.90
20744;DHT22;56303;52.160;-0.428;2023-04-03T16:35:13;14.30;99.90
20744;DHT22;56303;52.160;-0.428;2023-04-03T16:37:40;14.00;99.90
20744;DHT22;56303;52.160;-0.428;2023-04-03T16:40:08;13.90;99.90
20744;DHT22;56303;52.160;-0.428;2023-04-03T16:42:35;13.90;99.90
20744;DHT22;56303;52.160;-0.428;2023-04-03T16:45:05;13.80;99.90
20744;DHT22;56303;52.160;-0.428;2023-04-03T16:47:32;13.50;99.90
20744;DHT22;56303;52.160;-0.428;2023-04-03T16:49:59;13.50;99.90
20744;DHT22;56303;52.160;-0.428;2023-04-03T16:52:27;13.60;99.90
20744;DHT22;56303;52.160;-0.428;2023-04-03T16:54:53;14.30;99.90
20744;DHT22;56303;52.160;-0.428;2023-04-03T16:57:23;14.50;99.90
20744;DHT22;56303;52.160;-0.428;2023-04-03T16:59:53;13.60;99.90
20744;DHT22;56303;52.160;-0.428;2023-04-03T17:02:21;13.40;99.90
20744;DHT22;56303;52.160;-0.428;2023-04-03T17:04:52;13.50;99.90
20744;DHT22;56303;52.160;-0.428;2023-04-03T17:07:20;13.40;99.90
20744;DHT22;56303;52.160;-0.428;2023-04-03T17:09:47;13.10;99.90
20744;DHT22;56303;52.160;-0.428;2023-04-03T17:12:15;13.30;99.90
20744;DHT22;56303;52.160;-0.428;2023-04-03T17:14:43;13.40;99.90
20744;DHT22;56303;52.160;-0.428;2023-04-03T17:17:10;13.40;99.90
20744;DHT22;56303;52.160;-0.428;2023-04-03T17:19:37;13.20;99.90
20744;DHT22;56303;52.160;-0.428;2023-04-03T17:22:05;13.10;99.90
20744;DHT22;56303;52.160;-0.428;2023-04-03T17:24:33;12.80;99.90
20744;DHT22;56303;52.160;-0.428;2023-04-03T17:27:00;12.80;99.90